Grissom ARB, Indiana
Current Conditions -  °F | °C
As of 3:18 AM on Monday 24 Nov 2014 (Local Time) from KGUS Reporting Station
Light Rain Light Rain  
Wind Chill: 54°   Ceiling: 400
Heat Index: 54°   Visibility: 4mi
Dew Point: 54°   Wind: 20mph
Humidity: 100%   Direction: 220°SW
Pressure: 29.17"   Gusts: 25mph
Location:  40.6587°N, 86.1483°W
Report Text: KGUS 240818Z AUTO 22017G22KT 4SM R23/4500FT -RA BR OVC004 12/12 A2917 RMK AO2 RAE0806DZB0806
Loading
Personal Weather Stations






























Interactive Weather Map New forecast layout! Learn more

10-Day Weather Forecast

Advertisements
Track Severe Weather on mobile